sensor_id;sensor_type;location;lat;lon;timestamp;temperature;humidity
76787;DHT22;65739;51.482;5.702;2023-07-31T00:00:11;16.50;99.90
76787;DHT22;65739;51.482;5.702;2023-07-31T00:02:37;16.50;99.90
76787;DHT22;65739;51.482;5.702;2023-07-31T00:05:03;16.50;99.90
76787;DHT22;65739;51.482;5.702;2023-07-31T00:07:29;16.50;99.90
76787;DHT22;65739;51.482;5.702;2023-07-31T00:09:54;16.50;99.90
76787;DHT22;65739;51.482;5.702;2023-07-31T00:12:22;16.50;99.90
76787;DHT22;65739;51.482;5.702;2023-07-31T00:14:47;16.50;99.90
76787;DHT22;65739;51.482;5.702;2023-07-31T00:17:13;16.50;99.90
76787;DHT22;65739;51.482;5.702;2023-07-31T00:19:39;16.50;99.90
76787;DHT22;65739;51.482;5.702;2023-07-31T00:22:04;16.40;99.90
76787;DHT22;65739;51.482;5.702;2023-07-31T00:24:30;16.50;99.90
76787;DHT22;65739;51.482;5.702;2023-07-31T00:26:55;16.50;99.90
76787;DHT22;65739;51.482;5.702;2023-07-31T00:29:21;16.50;99.90
76787;DHT22;65739;51.482;5.702;2023-07-31T00:31:46;16.50;99.90
76787;DHT22;65739;51.482;5.702;2023-07-31T00:34:12;16.50;99.90
76787;DHT22;65739;51.482;5.702;2023-07-31T00:36:37;16.60;99.90
76787;DHT22;65739;51.482;5.702;2023-07-31T00:39:03;16.50;99.90
76787;DHT22;65739;51.482;5.702;2023-07-31T00:41:30;16.40;99.90
76787;DHT22;65739;51.482;5.702;2023-07-31T00:43:55;16.50;99.90
76787;DHT22;65739;51.482;5.702;2023-07-31T00:46:21;16.50;99.90
76787;DHT22;65739;51.482;5.702;2023-07-31T00:48:46;16.50;99.90
76787;DHT22;65739;51.482;5.702;2023-07-31T00:51:12;16.40;99.90
76787;DHT22;65739;51.482;5.702;2023-07-31T00:53:38;16.40;99.90
76787;DHT22;65739;51.482;5.702;2023-07-31T00:56:06;16.50;99.90
76787;DHT22;65739;51.482;5.702;2023-07-31T00:58:31;16.50;99.90
76787;DHT22;65739;51.482;5.702;2023-07-31T01:00:57;16.50;99.90
76787;DHT22;65739;51.482;5.702;2023-07-31T01:03:23;16.50;99.90
76787;DHT22;65739;51.482;5.702;2023-07-31T01:08:41;16.50;99.90
76787;DHT22;65739;51.482;5.702;2023-07-31T01:11:17;16.50;99.90
76787;DHT22;65739;51.482;5.702;2023-07-31T01:13:45;16.50;99.90
76787;DHT22;65739;51.482;5.702;2023-07-31T01:16:11;16.50;99.90
76787;DHT22;65739;51.482;5.702;2023-07-31T01:18:37;16.50;99.90
76787;DHT22;65739;51.482;5.702;2023-07-31T01:26:45;16.40;99.90
76787;DHT22;65739;51.482;5.702;2023-07-31T01:32:05;16.40;99.90
76787;DHT22;65739;51.482;5.702;2023-07-31T01:34:32;16.40;99.90
76787;DHT22;65739;51.482;5.702;2023-07-31T01:36:58;16.40;99.90
76787;DHT22;65739;51.482;5.702;2023-07-31T01:39:24;16.40;99.90
76787;DHT22;65739;51.482;5.702;2023-07-31T01:41:50;16.40;99.90
76787;DHT22;65739;51.482;5.702;2023-07-31T01:44:15;16.40;99.90
76787;DHT22;65739;51.482;5.702;2023-07-31T01:46:41;16.40;99.90
76787;DHT22;65739;51.482;5.702;2023-07-31T01:49:06;16.30;99.90
76787;DHT22;65739;51.482;5.702;2023-07-31T01:51:32;16.40;99.90
76787;DHT22;65739;51.482;5.702;2023-07-31T01:54:01;16.40;99.90
76787;DHT22;65739;51.482;5.702;2023-07-31T01:56:26;16.30;99.90
76787;DHT22;65739;51.482;5.702;2023-07-31T01:58:52;16.30;99.90
76787;DHT22;65739;51.482;5.702;2023-07-31T02:01:18;16.30;99.90
76787;DHT22;65739;51.482;5.702;2023-07-31T02:03:43;16.30;99.90
76787;DHT22;65739;51.482;5.702;2023-07-31T02:06:09;16.30;99.90
76787;DHT22;65739;51.482;5.702;2023-07-31T02:08:34;16.20;99.90
76787;DHT22;65739;51.482;5.702;2023-07-31T02:11:00;16.20;99.90
76787;DHT22;65739;51.482;5.702;2023-07-31T02:13:25;16.20;99.90
76787;DHT22;65739;51.482;5.702;2023-07-31T02:15:51;16.20;99.90
76787;DHT22;65739;51.482;5.702;2023-07-31T02:18:17;16.20;99.90
76787;DHT22;65739;51.482;5.702;2023-07-31T02:20:42;16.20;99.90
76787;DHT22;65739;51.482;5.702;2023-07-31T02:23:08;16.10;99.90
76787;DHT22;65739;51.482;5.702;2023-07-31T02:25:33;16.10;99.90
76787;DHT22;65739;51.482;5.702;2023-07-31T02:27:59;16.10;99.90
76787;DHT22;65739;51.482;5.702;2023-07-31T02:30:24;16.20;99.90
76787;DHT22;65739;51.482;5.702;2023-07-31T02:32:50;16.20;99.90
76787;DHT22;65739;51.482;5.702;2023-07-31T02:35:15;16.20;99.90
76787;DHT22;65739;51.482;5.702;2023-07-31T02:37:42;16.20;99.90
76787;DHT22;65739;51.482;5.702;2023-07-31T02:40:07;16.20;99.90
76787;DHT22;65739;51.482;5.702;2023-07-31T02:42:33;16.20;99.90
76787;DHT22;65739;51.482;5.702;2023-07-31T02:44:58;16.20;99.90
76787;DHT22;65739;51.482;5.702;2023-07-31T02:47:24;16.20;99.90
76787;DHT22;65739;51.482;5.702;2023-07-31T02:49:50;16.10;99.90
76787;DHT22;65739;51.482;5.702;2023-07-31T02:52:15;16.20;99.90
76787;DHT22;65739;51.482;5.702;2023-07-31T02:54:41;16.20;99.90
76787;DHT22;65739;51.482;5.702;2023-07-31T02:57:06;16.20;99.90
76787;DHT22;65739;51.482;5.702;2023-07-31T02:59:32;16.20;99.90
76787;DHT22;65739;51.482;5.702;2023-07-31T03:01:57;16.20;99.90
76787;DHT22;65739;51.482;5.702;2023-07-31T03:04:23;16.20;99.90
76787;DHT22;65739;51.482;5.702;2023-07-31T03:06:48;16.30;99.90
76787;DHT22;65739;51.482;5.702;2023-07-31T03:09:14;16.30;99.90
76787;DHT22;65739;51.482;5.702;2023-07-31T03:11:39;16.30;99.90
76787;DHT22;65739;51.482;5.702;2023-07-31T03:14:05;16.30;99.90
76787;DHT22;65739;51.482;5.702;2023-07-31T03:16:30;16.30;99.90
76787;DHT22;65739;51.482;5.702;2023-07-31T03:18:56;16.30;99.90
76787;DHT22;65739;51.482;5.702;2023-07-31T03:21:21;16.30;99.90
76787;DHT22;65739;51.482;5.702;2023-07-31T03:23:47;16.30;99.90
76787;DHT22;65739;51.482;5.702;2023-07-31T03:26:12;16.30;99.90
76787;DHT22;65739;51.482;5.702;2023-07-31T03:28:38;16.40;99.90
76787;DHT22;65739;51.482;5.702;2023-07-31T03:31:04;16.40;99.90
76787;DHT22;65739;51.482;5.702;2023-07-31T03:33:30;16.30;99.90
76787;DHT22;65739;51.482;5.702;2023-07-31T03:35:55;16.40;99.90
76787;DHT22;65739;51.482;5.702;2023-07-31T03:38:21;16.40;99.90
76787;DHT22;65739;51.482;5.702;2023-07-31T03:40:46;16.50;99.90
76787;DHT22;65739;51.482;5.702;2023-07-31T03:43:13;16.50;99.90
76787;DHT22;65739;51.482;5.702;2023-07-31T03:45:38;16.40;99.90
76787;DHT22;65739;51.482;5.702;2023-07-31T03:48:04;16.50;99.90
76787;DHT22;65739;51.482;5.702;2023-07-31T03:50:30;16.50;99.90
76787;DHT22;65739;51.482;5.702;2023-07-31T03:52:55;16.50;99.90
76787;DHT22;65739;51.482;5.702;2023-07-31T03:55:21;16.50;99.90
76787;DHT22;65739;51.482;5.702;2023-07-31T03:57:47;16.60;99.90
76787;DHT22;65739;51.482;5.702;2023-07-31T04:00:13;16.50;99.90
76787;DHT22;65739;51.482;5.702;2023-07-31T04:02:38;16.50;99.90
76787;DHT22;65739;51.482;5.702;2023-07-31T04:05:04;16.50;99.90
76787;DHT22;65739;51.482;5.702;2023-07-31T04:07:30;16.60;99.90
76787;DHT22;65739;51.482;5.702;2023-07-31T04:09:56;16.70;99.90
76787;DHT22;65739;51.482;5.702;2023-07-31T04:12:22;16.70;99.90
76787;DHT22;65739;51.482;5.702;2023-07-31T04:14:48;16.70;99.90
76787;DHT22;65739;51.482;5.702;2023-07-31T04:17:13;16.60;99.90
76787;DHT22;65739;51.482;5.702;2023-07-31T04:19:39;16.50;99.90
76787;DHT22;65739;51.482;5.702;2023-07-31T04:22:04;16.50;99.90
76787;DHT22;65739;51.482;5.702;2023-07-31T04:24:30;16.40;99.90
76787;DHT22;65739;51.482;5.702;2023-07-31T04:26:55;16.50;99.90
76787;DHT22;65739;51.482;5.702;2023-07-31T04:29:21;16.50;99.90
76787;DHT22;65739;51.482;5.702;2023-07-31T04:31:48;16.50;99.90
76787;DHT22;65739;51.482;5.702;2023-07-31T04:34:13;16.50;99.90
76787;DHT22;65739;51.482;5.702;2023-07-31T04:36:39;16.50;99.90
76787;DHT22;65739;51.482;5.702;2023-07-31T04:39:05;16.60;99.90
76787;DHT22;65739;51.482;5.702;2023-07-31T04:41:30;16.50;99.90
76787;DHT22;65739;51.482;5.702;2023-07-31T04:43:56;16.60;99.90
76787;DHT22;65739;51.482;5.702;2023-07-31T04:46:21;16.60;99.90
76787;DHT22;65739;51.482;5.702;2023-07-31T04:48:47;16.70;99.90
76787;DHT22;65739;51.482;5.702;2023-07-31T04:51:12;16.70;99.90
76787;DHT22;65739;51.482;5.702;2023-07-31T04:53:38;16.70;99.90
76787;DHT22;65739;51.482;5.702;2023-07-31T04:56:03;16.80;99.90
76787;DHT22;65739;51.482;5.702;2023-07-31T04:58:29;16.70;99.90
76787;DHT22;65739;51.482;5.702;2023-07-31T05:00:54;16.70;99.90
76787;DHT22;65739;51.482;5.702;2023-07-31T05:03:20;16.80;99.90
76787;DHT22;65739;51.482;5.702;2023-07-31T05:05:46;16.80;99.90
76787;DHT22;65739;51.482;5.702;2023-07-31T05:08:11;16.80;99.90
76787;DHT22;65739;51.482;5.702;2023-07-31T05:10:37;16.80;99.90
76787;DHT22;65739;51.482;5.702;2023-07-31T05:13:03;16.90;99.90
76787;DHT22;65739;51.482;5.702;2023-07-31T05:15:28;16.90;99.90
76787;DHT22;65739;51.482;5.702;2023-07-31T05:17:54;16.80;99.90
76787;DHT22;65739;51.482;5.702;2023-07-31T05:20:20;16.80;99.90
76787;DHT22;65739;51.482;5.702;2023-07-31T05:22:46;16.80;99.90
76787;DHT22;65739;51.482;5.702;2023-07-31T05:25:12;16.70;99.90
76787;DHT22;65739;51.482;5.702;2023-07-31T05:27:37;16.70;99.90
76787;DHT22;65739;51.482;5.702;2023-07-31T05:30:03;16.70;99.90
76787;DHT22;65739;51.482;5.702;2023-07-31T05:32:29;16.70;99.90
76787;DHT22;65739;51.482;5.702;2023-07-31T05:34:55;16.60;99.90
76787;DHT22;65739;51.482;5.702;2023-07-31T05:37:20;16.60;99.90
76787;DHT22;65739;51.482;5.702;2023-07-31T05:39:46;16.50;99.90
76787;DHT22;65739;51.482;5.702;2023-07-31T05:42:11;16.50;99.90
76787;DHT22;65739;51.482;5.702;2023-07-31T05:44:37;16.50;99.90
76787;DHT22;65739;51.482;5.702;2023-07-31T05:47:02;16.40;99.90
76787;DHT22;65739;51.482;5.702;2023-07-31T05:49:28;16.50;99.90
76787;DHT22;65739;51.482;5.702;2023-07-31T05:51:53;16.50;99.90
76787;DHT22;65739;51.482;5.702;2023-07-31T05:54:19;16.50;99.90
76787;DHT22;65739;51.482;5.702;2023-07-31T05:56:44;16.50;99.90
76787;DHT22;65739;51.482;5.702;2023-07-31T05:59:12;16.50;99.90
76787;DHT22;65739;51.482;5.702;2023-07-31T06:01:38;16.50;99.90
76787;DHT22;65739;51.482;5.702;2023-07-31T06:04:03;16.50;99.90
76787;DHT22;65739;51.482;5.702;2023-07-31T06:06:29;16.40;99.90
76787;DHT22;65739;51.482;5.702;2023-07-31T06:08:55;16.40;99.90
76787;DHT22;65739;51.482;5.702;2023-07-31T06:11:21;16.40;99.90
76787;DHT22;65739;51.482;5.702;2023-07-31T06:13:47;16.40;99.90
76787;DHT22;65739;51.482;5.702;2023-07-31T06:16:14;16.40;99.90
76787;DHT22;65739;51.482;5.702;2023-07-31T06:18:40;16.50;99.90
76787;DHT22;65739;51.482;5.702;2023-07-31T06:21:06;16.40;99.90
76787;DHT22;65739;51.482;5.702;2023-07-31T06:23:32;16.40;99.90
76787;DHT22;65739;51.482;5.702;2023-07-31T06:25:57;16.40;99.90
76787;DHT22;65739;51.482;5.702;2023-07-31T06:28:30;16.40;99.90
76787;DHT22;65739;51.482;5.702;2023-07-31T06:30:57;16.40;99.90
76787;DHT22;65739;51.482;5.702;2023-07-31T06:33:43;16.40;99.90
76787;DHT22;65739;51.482;5.702;2023-07-31T06:36:08;16.40;99.90
76787;DHT22;65739;51.482;5.702;2023-07-31T06:38:34;16.30;99.90
76787;DHT22;65739;51.482;5.702;2023-07-31T06:41:07;16.30;99.90
76787;DHT22;65739;51.482;5.702;2023-07-31T06:43:32;16.30;99.90
76787;DHT22;65739;51.482;5.702;2023-07-31T06:45:59;16.40;99.90
76787;DHT22;65739;51.482;5.702;2023-07-31T06:48:39;16.40;99.90
76787;DHT22;65739;51.482;5.702;2023-07-31T06:51:04;16.50;99.90
76787;DHT22;65739;51.482;5.702;2023-07-31T06:53:30;16.40;99.90
76787;DHT22;65739;51.482;5.702;2023-07-31T06:55:56;16.60;99.90
76787;DHT22;65739;51.482;5.702;2023-07-31T06:58:21;16.50;99.90
76787;DHT22;65739;51.482;5.702;2023-07-31T07:00:47;16.50;99.90
76787;DHT22;65739;51.482;5.702;2023-07-31T07:03:14;16.60;99.90
76787;DHT22;65739;51.482;5.702;2023-07-31T07:05:40;16.50;99.90
76787;DHT22;65739;51.482;5.702;2023-07-31T07:08:06;16.60;99.90
76787;DHT22;65739;51.482;5.702;2023-07-31T07:10:31;16.60;99.90
76787;DHT22;65739;51.482;5.702;2023-07-31T07:12:57;16.60;99.90
76787;DHT22;65739;51.482;5.702;2023-07-31T07:15:22;16.50;99.90
76787;DHT22;65739;51.482;5.702;2023-07-31T07:17:48;16.50;99.90
76787;DHT22;65739;51.482;5.702;2023-07-31T07:20:15;16.50;99.90
76787;DHT22;65739;51.482;5.702;2023-07-31T07:22:40;16.60;99.90
76787;DHT22;65739;51.482;5.702;2023-07-31T07:25:08;16.60;99.90
76787;DHT22;65739;51.482;5.702;2023-07-31T07:27:36;16.70;99.90
76787;DHT22;65739;51.482;5.702;2023-07-31T07:30:20;16.70;99.90
76787;DHT22;65739;51.482;5.702;2023-07-31T07:32:45;16.70;99.90
76787;DHT22;65739;51.482;5.702;2023-07-31T07:35:11;16.80;99.90
76787;DHT22;65739;51.482;5.702;2023-07-31T07:37:37;16.80;99.90
76787;DHT22;65739;51.482;5.702;2023-07-31T07:40:02;16.60;99.90
76787;DHT22;65739;51.482;5.702;2023-07-31T07:42:28;16.70;99.90
76787;DHT22;65739;51.482;5.702;2023-07-31T07:44:54;16.70;99.90
76787;DHT22;65739;51.482;5.702;2023-07-31T07:47:19;16.70;99.90
76787;DHT22;65739;51.482;5.702;2023-07-31T07:49:45;16.70;99.90
76787;DHT22;65739;51.482;5.702;2023-07-31T07:52:11;16.70;99.90
76787;DHT22;65739;51.482;5.702;2023-07-31T07:54:36;16.80;99.90
76787;DHT22;65739;51.482;5.702;2023-07-31T07:57:02;16.70;99.90
76787;DHT22;65739;51.482;5.702;2023-07-31T07:59:28;16.70;99.90
76787;DHT22;65739;51.482;5.702;2023-07-31T08:01:54;16.70;99.90
76787;DHT22;65739;51.482;5.702;2023-07-31T08:04:19;16.60;99.90
76787;DHT22;65739;51.482;5.702;2023-07-31T08:06:45;16.70;99.90
76787;DHT22;65739;51.482;5.702;2023-07-31T08:09:10;16.70;99.90
76787;DHT22;65739;51.482;5.702;2023-07-31T08:11:36;16.70;99.90
76787;DHT22;65739;51.482;5.702;2023-07-31T08:14:01;16.60;99.90
76787;DHT22;65739;51.482;5.702;2023-07-31T08:16:27;16.60;99.90
76787;DHT22;65739;51.482;5.702;2023-07-31T08:18:53;16.60;99.90
76787;DHT22;65739;51.482;5.702;2023-07-31T08:21:19;16.70;99.90
76787;DHT22;65739;51.482;5.702;2023-07-31T08:23:44;16.70;99.90
76787;DHT22;65739;51.482;5.702;2023-07-31T08:26:17;16.70;99.90
76787;DHT22;65739;51.482;5.702;2023-07-31T08:28:42;16.80;99.90
76787;DHT22;65739;51.482;5.702;2023-07-31T08:31:08;16.90;99.90
76787;DHT22;65739;51.482;5.702;2023-07-31T08:33:34;16.90;99.90
76787;DHT22;65739;51.482;5.702;2023-07-31T08:35:59;16.80;99.90
76787;DHT22;65739;51.482;5.702;2023-07-31T08:38:26;16.80;99.90
76787;DHT22;65739;51.482;5.702;2023-07-31T08:40:52;16.80;99.90
76787;DHT22;65739;51.482;5.702;2023-07-31T08:43:20;16.70;99.90
76787;DHT22;65739;51.482;5.702;2023-07-31T08:45:47;16.80;99.90
76787;DHT22;65739;51.482;5.702;2023-07-31T08:48:15;16.80;99.90
76787;DHT22;65739;51.482;5.702;2023-07-31T08:50:40;16.80;99.90
76787;DHT22;65739;51.482;5.702;2023-07-31T08:53:07;16.80;99.90
76787;DHT22;65739;51.482;5.702;2023-07-31T08:55:32;16.80;99.90
76787;DHT22;65739;51.482;5.702;2023-07-31T08:57:58;16.90;99.90
76787;DHT22;65739;51.482;5.702;2023-07-31T09:00:25;16.80;99.90
76787;DHT22;65739;51.482;5.702;2023-07-31T09:02:59;16.80;99.90
76787;DHT22;65739;51.482;5.702;2023-07-31T09:05:29;16.80;99.90
76787;DHT22;65739;51.482;5.702;2023-07-31T09:07:55;16.80;99.90
76787;DHT22;65739;51.482;5.702;2023-07-31T09:10:21;16.70;99.90
76787;DHT22;65739;51.482;5.702;2023-07-31T09:12:49;16.80;99.90
76787;DHT22;65739;51.482;5.702;2023-07-31T09:15:14;16.80;99.90
76787;DHT22;65739;51.482;5.702;2023-07-31T09:17:40;16.90;99.90
76787;DHT22;65739;51.482;5.702;2023-07-31T09:22:38;17.10;99.90
76787;DHT22;65739;51.482;5.702;2023-07-31T09:25:15;17.10;99.90
76787;DHT22;65739;51.482;5.702;2023-07-31T09:30:17;17.30;99.90
76787;DHT22;65739;51.482;5.702;2023-07-31T09:32:44;17.30;99.90
76787;DHT22;65739;51.482;5.702;2023-07-31T09:35:30;17.30;99.90
76787;DHT22;65739;51.482;5.702;2023-07-31T09:37:58;17.30;99.90
76787;DHT22;65739;51.482;5.702;2023-07-31T09:40:35;17.40;99.90
76787;DHT22;65739;51.482;5.702;2023-07-31T09:43:12;17.50;99.90
76787;DHT22;65739;51.482;5.702;2023-07-31T09:45:39;17.50;99.90
76787;DHT22;65739;51.482;5.702;2023-07-31T09:48:10;17.60;99.90
76787;DHT22;65739;51.482;5.702;2023-07-31T09:50:38;17.60;99.90
76787;DHT22;65739;51.482;5.702;2023-07-31T09:53:05;17.70;99.90
76787;DHT22;65739;51.482;5.702;2023-07-31T09:55:30;17.70;99.90
76787;DHT22;65739;51.482;5.702;2023-07-31T09:57:57;17.80;99.90
76787;DHT22;65739;51.482;5.702;2023-07-31T10:00:24;17.80;99.90
76787;DHT22;65739;51.482;5.702;2023-07-31T10:02:53;17.80;99.90
76787;DHT22;65739;51.482;5.702;2023-07-31T10:05:19;17.80;99.90
76787;DHT22;65739;51.482;5.702;2023-07-31T10:07:53;17.80;99.90
76787;DHT22;65739;51.482;5.702;2023-07-31T10:10:20;17.80;99.90
76787;DHT22;65739;51.482;5.702;2023-07-31T10:12:48;17.90;99.90
76787;DHT22;65739;51.482;5.702;2023-07-31T10:15:15;17.90;99.90
76787;DHT22;65739;51.482;5.702;2023-07-31T10:17:41;17.80;99.90
76787;DHT22;65739;51.482;5.702;2023-07-31T10:20:08;17.70;99.90
76787;DHT22;65739;51.482;5.702;2023-07-31T10:22:34;17.70;99.90
76787;DHT22;65739;51.482;5.702;2023-07-31T10:25:00;17.80;99.90
76787;DHT22;65739;51.482;5.702;2023-07-31T10:27:26;17.70;99.90
76787;DHT22;65739;51.482;5.702;2023-07-31T10:29:54;17.80;99.90
76787;DHT22;65739;51.482;5.702;2023-07-31T10:32:21;17.80;99.90
76787;DHT22;65739;51.482;5.702;2023-07-31T10:34:48;17.90;99.90
76787;DHT22;65739;51.482;5.702;2023-07-31T10:37:24;17.90;99.90
76787;DHT22;65739;51.482;5.702;2023-07-31T10:39:56;17.90;99.90
76787;DHT22;65739;51.482;5.702;2023-07-31T10:42:30;17.90;99.90
76787;DHT22;65739;51.482;5.702;2023-07-31T10:45:01;18.00;99.90
76787;DHT22;65739;51.482;5.702;2023-07-31T10:47:27;18.00;99.90
76787;DHT22;65739;51.482;5.702;2023-07-31T10:49:52;18.10;99.90
76787;DHT22;65739;51.482;5.702;2023-07-31T10:52:21;18.20;99.90
76787;DHT22;65739;51.482;5.702;2023-07-31T10:54:49;18.30;99.90
76787;DHT22;65739;51.482;5.702;2023-07-31T10:57:21;18.30;99.90
76787;DHT22;65739;51.482;5.702;2023-07-31T10:59:48;18.40;99.90
76787;DHT22;65739;51.482;5.702;2023-07-31T11:02:26;18.40;99.90
76787;DHT22;65739;51.482;5.702;2023-07-31T11:05:10;18.50;99.90
76787;DHT22;65739;51.482;5.702;2023-07-31T11:07:49;18.70;99.90
76787;DHT22;65739;51.482;5.702;2023-07-31T11:10:18;18.80;99.90
76787;DHT22;65739;51.482;5.702;2023-07-31T11:12:45;19.00;99.90
76787;DHT22;65739;51.482;5.702;2023-07-31T11:15:12;19.00;99.90
76787;DHT22;65739;51.482;5.702;2023-07-31T11:17:40;19.10;99.90
76787;DHT22;65739;51.482;5.702;2023-07-31T11:20:07;19.40;99.90
76787;DHT22;65739;51.482;5.702;2023-07-31T11:22:34;19.50;99.90
76787;DHT22;65739;51.482;5.702;2023-07-31T11:25:01;19.60;99.90
76787;DHT22;65739;51.482;5.702;2023-07-31T11:27:28;19.50;99.90
76787;DHT22;65739;51.482;5.702;2023-07-31T11:30:00;19.30;99.90
76787;DHT22;65739;51.482;5.702;2023-07-31T11:32:27;19.10;99.90
76787;DHT22;65739;51.482;5.702;2023-07-31T11:34:53;19.00;99.90
76787;DHT22;65739;51.482;5.702;2023-07-31T11:37:19;19.10;99.90
76787;DHT22;65739;51.482;5.702;2023-07-31T11:39:59;19.20;99.90
76787;DHT22;65739;51.482;5.702;2023-07-31T11:42:25;19.20;99.90
76787;DHT22;65739;51.482;5.702;2023-07-31T11:44:50;19.30;99.90
76787;DHT22;65739;51.482;5.702;2023-07-31T11:47:16;19.50;99.90
76787;DHT22;65739;51.482;5.702;2023-07-31T11:49:43;19.80;99.90
76787;DHT22;65739;51.482;5.702;2023-07-31T11:52:09;19.90;99.90
76787;DHT22;65739;51.482;5.702;2023-07-31T11:54:35;19.80;99.90
76787;DHT22;65739;51.482;5.702;2023-07-31T11:57:02;19.90;99.90
76787;DHT22;65739;51.482;5.702;2023-07-31T11:59:27;19.80;99.90
76787;DHT22;65739;51.482;5.702;2023-07-31T12:01:53;19.50;99.90
76787;DHT22;65739;51.482;5.702;2023-07-31T12:04:19;19.20;99.90
76787;DHT22;65739;51.482;5.702;2023-07-31T12:06:47;19.30;99.90
76787;DHT22;65739;51.482;5.702;2023-07-31T12:09:14;19.10;99.90
76787;DHT22;65739;51.482;5.702;2023-07-31T12:11:44;19.30;99.90
76787;DHT22;65739;51.482;5.702;2023-07-31T12:14:26;19.10;99.90
76787;DHT22;65739;51.482;5.702;2023-07-31T12:16:59;19.10;99.90
76787;DHT22;65739;51.482;5.702;2023-07-31T12:19:27;19.00;99.90
76787;DHT22;65739;51.482;5.702;2023-07-31T12:21:55;18.90;99.90
76787;DHT22;65739;51.482;5.702;2023-07-31T12:24:21;18.70;99.90
76787;DHT22;65739;51.482;5.702;2023-07-31T12:26:48;18.70;99.90
76787;DHT22;65739;51.482;5.702;2023-07-31T12:29:13;18.70;99.90
76787;DHT22;65739;51.482;5.702;2023-07-31T12:31:41;18.70;99.90
76787;DHT22;65739;51.482;5.702;2023-07-31T12:34:18;18.80;99.90
76787;DHT22;65739;51.482;5.702;2023-07-31T12:36:44;18.80;99.90
76787;DHT22;65739;51.482;5.702;2023-07-31T12:39:09;18.80;99.90
76787;DHT22;65739;51.482;5.702;2023-07-31T12:41:35;18.80;99.90
76787;DHT22;65739;51.482;5.702;2023-07-31T12:44:01;18.80;99.90
76787;DHT22;65739;51.482;5.702;2023-07-31T12:46:26;18.80;99.90
76787;DHT22;65739;51.482;5.702;2023-07-31T12:48:52;18.80;99.90
76787;DHT22;65739;51.482;5.702;2023-07-31T12:51:17;18.90;99.90
76787;DHT22;65739;51.482;5.702;2023-07-31T12:53:43;18.90;99.90
76787;DHT22;65739;51.482;5.702;2023-07-31T12:56:08;18.90;99.90
76787;DHT22;65739;51.482;5.702;2023-07-31T12:58:34;19.00;99.90
76787;DHT22;65739;51.482;5.702;2023-07-31T13:00:59;18.90;99.90
76787;DHT22;65739;51.482;5.702;2023-07-31T13:03:26;18.90;99.90
76787;DHT22;65739;51.482;5.702;2023-07-31T13:05:52;19.00;99.90
76787;DHT22;65739;51.482;5.702;2023-07-31T13:08:17;19.10;99.90
76787;DHT22;65739;51.482;5.702;2023-07-31T13:10:43;19.20;99.90
76787;DHT22;65739;51.482;5.702;2023-07-31T13:13:10;19.20;99.90
76787;DHT22;65739;51.482;5.702;2023-07-31T13:15:35;19.10;99.90
76787;DHT22;65739;51.482;5.702;2023-07-31T13:18:01;19.10;99.90
76787;DHT22;65739;51.482;5.702;2023-07-31T13:20:26;19.20;99.90
76787;DHT22;65739;51.482;5.702;2023-07-31T13:22:52;19.30;99.90
76787;DHT22;65739;51.482;5.702;2023-07-31T13:25:17;19.30;99.90
76787;DHT22;65739;51.482;5.702;2023-07-31T13:27:43;19.40;99.90
76787;DHT22;65739;51.482;5.702;2023-07-31T13:30:09;19.50;99.90
76787;DHT22;65739;51.482;5.702;2023-07-31T13:32:34;19.70;99.90
76787;DHT22;65739;51.482;5.702;2023-07-31T13:35:07;19.70;99.90
76787;DHT22;65739;51.482;5.702;2023-07-31T13:37:33;19.70;99.90
76787;DHT22;65739;51.482;5.702;2023-07-31T13:39:59;19.60;99.90
76787;DHT22;65739;51.482;5.702;2023-07-31T13:42:24;19.50;99.90
76787;DHT22;65739;51.482;5.702;2023-07-31T13:44:50;19.50;99.90
76787;DHT22;65739;51.482;5.702;2023-07-31T13:47:15;19.60;99.90
76787;DHT22;65739;51.482;5.702;2023-07-31T13:49:41;19.70;99.90
76787;DHT22;65739;51.482;5.702;2023-07-31T13:52:08;19.80;99.90
76787;DHT22;65739;51.482;5.702;2023-07-31T13:54:34;19.70;99.90
76787;DHT22;65739;51.482;5.702;2023-07-31T13:57:00;19.50;99.90
76787;DHT22;65739;51.482;5.702;2023-07-31T13:59:25;19.50;99.90
76787;DHT22;65739;51.482;5.702;2023-07-31T14:01:51;19.40;99.90
76787;DHT22;65739;51.482;5.702;2023-07-31T14:04:17;19.20;99.90
76787;DHT22;65739;51.482;5.702;2023-07-31T14:06:43;19.20;99.90
76787;DHT22;65739;51.482;5.702;2023-07-31T14:09:09;19.10;99.90
76787;DHT22;65739;51.482;5.702;2023-07-31T14:11:34;18.90;99.90
76787;DHT22;65739;51.482;5.702;2023-07-31T14:14:00;18.70;99.90
76787;DHT22;65739;51.482;5.702;2023-07-31T14:16:27;18.60;99.90
76787;DHT22;65739;51.482;5.702;2023-07-31T14:18:53;18.40;99.90
76787;DHT22;65739;51.482;5.702;2023-07-31T14:21:19;18.30;99.90
76787;DHT22;65739;51.482;5.702;2023-07-31T14:23:45;18.30;99.90
76787;DHT22;65739;51.482;5.702;2023-07-31T14:26:11;18.30;99.90
76787;DHT22;65739;51.482;5.702;2023-07-31T14:28:36;18.20;99.90
76787;DHT22;65739;51.482;5.702;2023-07-31T14:31:02;18.20;99.90
76787;DHT22;65739;51.482;5.702;2023-07-31T14:33:28;18.20;99.90
76787;DHT22;65739;51.482;5.702;2023-07-31T14:35:53;18.20;99.90
76787;DHT22;65739;51.482;5.702;2023-07-31T14:38:19;18.20;99.90
76787;DHT22;65739;51.482;5.702;2023-07-31T14:40:45;18.30;99.90
76787;DHT22;65739;51.482;5.702;2023-07-31T14:43:10;18.40;99.90
76787;DHT22;65739;51.482;5.702;2023-07-31T14:45:36;18.30;99.90
76787;DHT22;65739;51.482;5.702;2023-07-31T14:48:02;18.40;99.90
76787;DHT22;65739;51.482;5.702;2023-07-31T14:50:28;18.40;99.90
76787;DHT22;65739;51.482;5.702;2023-07-31T14:52:53;18.40;99.90
76787;DHT22;65739;51.482;5.702;2023-07-31T14:55:19;18.50;99.90
76787;DHT22;65739;51.482;5.702;2023-07-31T14:57:45;18.50;99.90
76787;DHT22;65739;51.482;5.702;2023-07-31T15:00:11;18.40;99.90
76787;DHT22;65739;51.482;5.702;2023-07-31T15:02:37;18.40;99.90
76787;DHT22;65739;51.482;5.702;2023-07-31T15:05:04;18.30;99.90
76787;DHT22;65739;51.482;5.702;2023-07-31T15:07:29;18.30;99.90
76787;DHT22;65739;51.482;5.702;2023-07-31T15:17:26;18.30;99.90
76787;DHT22;65739;51.482;5.702;2023-07-31T16:25:05;17.60;99.90
76787;DHT22;65739;51.482;5.702;2023-07-31T16:27:58;17.60;99.90
76787;DHT22;65739;51.482;5.702;2023-07-31T19:02:38;17.40;99.90
76787;DHT22;65739;51.482;5.702;2023-07-31T19:05:43;17.40;99.90
76787;DHT22;65739;51.482;5.702;2023-07-31T19:08:33;17.50;99.90
76787;DHT22;65739;51.482;5.702;2023-07-31T19:11:39;17.50;99.90
76787;DHT22;65739;51.482;5.702;2023-07-31T19:14:11;17.50;99.90
76787;DHT22;65739;51.482;5.702;2023-07-31T19:16:38;17.10;99.90
76787;DHT22;65739;51.482;5.702;2023-07-31T19:19:03;16.90;99.90
76787;DHT22;65739;51.482;5.702;2023-07-31T19:21:29;16.90;99.90
76787;DHT22;65739;51.482;5.702;2023-07-31T19:23:54;16.90;99.90
76787;DHT22;65739;51.482;5.702;2023-07-31T19:26:20;17.00;99.90
76787;DHT22;65739;51.482;5.702;2023-07-31T19:28:45;17.10;99.90